Time;durP1;ratioP1;P1;durP2;ratioP2;P2;SDS_P1;SDS_P2;PMS_P1;PMS_P2;Temp;Humidity;BMP_temperature;BMP_pressure;BME280_temperature;BME280_humidity;BME280_pressure;Samples;Min_cycle;Max_cycle;Signal;HPM_P1;HPM_P2
2022/03/23 00:02:25;;;;;;;;;75.25;54.75;;;;;11.25;49.56;102458.00;5076918;28;45415;-74
2022/03/23 00:04:51;;;;;;;;;70.25;54.50;;;;;11.43;49.10;102510.09;5076573;28;45501;-74
2022/03/23 00:07:17;;;;;;;;;66.75;52.75;;;;;11.29;47.79;102475.88;5077951;27;46295;-75
2022/03/23 00:09:43;;;;;;;;;65.75;51.50;;;;;10.95;46.96;102423.91;5076711;28;45223;-75
2022/03/23 00:12:09;;;;;;;;;74.25;53.00;;;;;11.36;48.07;102509.72;5073512;28;45330;-74
2022/03/23 00:14:35;;;;;;;;;72.75;55.25;;;;;11.25;47.48;102492.41;5081517;27;45223;-74
2022/03/23 00:17:00;;;;;;;;;67.00;52.00;;;;;11.26;49.19;102500.44;5077948;27;45502;-75
2022/03/23 00:19:26;;;;;;;;;70.00;53.25;;;;;11.24;50.12;102509.13;5077028;28;45249;-74
2022/03/23 00:21:52;;;;;;;;;68.50;52.25;;;;;11.26;50.02;102520.69;5080488;28;45288;-74
2022/03/23 00:24:17;;;;;;;;;69.75;53.75;;;;;11.22;49.18;102524.03;5076467;28;45293;-74
2022/03/23 00:26:43;;;;;;;;;73.00;56.25;;;;;10.90;50.19;102473.97;5072567;27;45388;-75
2022/03/23 00:29:08;;;;;;;;;69.50;55.50;;;;;11.04;49.17;102495.84;5080039;28;45280;-74
2022/03/23 00:31:35;;;;;;;;;67.50;51.50;;;;;11.15;49.83;102517.53;5074055;27;45437;-75
2022/03/23 00:34:00;;;;;;;;;66.25;52.00;;;;;10.98;48.77;102488.50;5077211;28;46350;-74
2022/03/23 00:36:26;;;;;;;;;72.75;53.50;;;;;11.09;49.24;102522.50;5074651;27;45303;-75
2022/03/23 00:38:53;;;;;;;;;68.75;54.00;;;;;10.90;48.43;102495.13;5077284;28;45208;-74
2022/03/23 00:41:19;;;;;;;;;71.00;55.00;;;;;10.95;50.15;102514.81;5079201;28;45381;-75
2022/03/23 00:43:44;;;;;;;;;68.75;52.50;;;;;10.83;48.47;102503.59;5081087;28;45400;-75
2022/03/23 00:46:10;;;;;;;;;69.25;52.75;;;;;10.56;50.09;102460.81;5075597;27;46083;-74
2022/03/23 00:48:35;;;;;;;;;67.50;52.75;;;;;10.77;48.97;102499.72;5068047;27;45250;-74
2022/03/23 00:51:01;;;;;;;;;68.25;51.75;;;;;10.83;48.58;102516.81;5078070;28;45657;-74
2022/03/23 00:53:27;;;;;;;;;70.75;51.75;;;;;10.82;48.33;102519.41;5069215;28;45418;-74
2022/03/23 00:55:52;;;;;;;;;69.00;49.75;;;;;10.79;49.92;102509.56;5079054;28;46066;-74
2022/03/23 00:58:17;;;;;;;;;70.25;52.50;;;;;10.77;50.95;102513.88;5070347;28;45241;-74
2022/03/23 01:00:45;;;;;;;;;71.00;55.75;;;;;10.45;51.25;102459.34;5080337;28;45298;-74
2022/03/23 01:03:11;;;;;;;;;33.00;20.75;;;;;10.65;48.58;102498.28;5070991;28;45474;-74
2022/03/23 01:05:36;;;;;;;;;62.75;50.00;;;;;10.42;50.41;102475.94;5079670;28;46143;-74
2022/03/23 01:08:03;;;;;;;;;65.75;52.00;;;;;10.68;50.65;102521.34;5073149;28;45314;-74
2022/03/23 01:10:29;;;;;;;;;71.50;52.75;;;;;10.54;50.33;102494.19;5081486;28;45235;-74
2022/03/23 01:12:55;;;;;;;;;71.75;54.00;;;;;10.52;50.74;102493.19;5073837;28;45540;-75
2022/03/23 01:15:21;;;;;;;;;71.25;56.00;;;;;10.57;50.16;102504.00;5080103;28;45276;-74
2022/03/23 01:17:47;;;;;;;;;65.75;52.00;;;;;10.66;50.92;102515.94;5074382;28;45505;-74
2022/03/23 01:20:14;;;;;;;;;65.50;50.00;;;;;10.55;50.49;102503.91;5078034;27;45300;-74
2022/03/23 01:22:41;;;;;;;;;70.25;52.25;;;;;10.33;50.33;102469.25;5075140;27;45552;-75
2022/03/23 01:25:08;;;;;;;;;70.00;54.00;;;;;10.50;51.03;102505.41;5079619;28;45231;-74
2022/03/23 01:27:34;;;;;;;;;64.25;50.00;;;;;10.33;50.59;102466.63;5071152;28;45252;-75
2022/03/23 01:30:00;;;;;;;;;69.50;52.00;;;;;10.43;51.40;102501.53;5079818;27;45243;-74
2022/03/23 01:32:25;;;;;;;;;65.00;51.50;;;;;10.36;51.79;102495.84;5067955;28;45421;-74
2022/03/23 01:34:51;;;;;;;;;69.50;52.75;;;;;9.99;51.13;102438.38;5079580;27;46548;-74
2022/03/23 01:37:16;;;;;;;;;67.00;50.25;;;;;10.38;50.94;102505.69;5070765;27;45358;-74
2022/03/23 01:39:42;;;;;;;;;70.25;54.00;;;;;9.91;51.74;102429.16;5080076;27;45268;-75
2022/03/23 01:42:07;;;;;;;;;66.75;52.00;;;;;10.28;50.77;102499.00;5077757;28;46849;-74
2022/03/23 01:44:34;;;;;;;;;65.75;53.50;;;;;10.24;51.13;102504.91;5078659;28;46136;-74
2022/03/23 01:47:12;;;;;;;;;69.75;54.00;;;;;10.26;51.21;102508.56;5066671;28;45596;-74
2022/03/23 01:49:43;;;;;;;;;70.00;55.25;;;;;10.08;51.21;102482.06;5059217;28;45366;-74
2022/03/23 01:52:11;;;;;;;;;70.25;53.25;;;;;10.01;50.51;102482.56;5076336;28;46050;-74
2022/03/23 01:54:38;;;;;;;;;73.75;55.50;;;;;10.16;50.41;102507.97;5078293;28;47138;-74
2022/03/23 01:57:05;;;;;;;;;70.75;54.75;;;;;10.07;51.48;102495.19;5073458;28;45506;-75
2022/03/23 01:59:32;;;;;;;;;62.00;50.25;;;;;10.09;49.46;102504.13;5070356;28;45448;-75
2022/03/23 02:01:58;;;;;;;;;67.50;51.75;;;;;9.93;52.53;102482.97;5078152;28;45666;-75
2022/03/23 02:04:23;;;;;;;;;70.00;51.75;;;;;10.03;52.20;102503.78;5071660;28;46456;-75
2022/03/23 02:06:49;;;;;;;;;71.25;53.00;;;;;9.98;52.73;102503.53;5078880;28;45359;-75
2022/03/23 02:09:18;;;;;;;;;65.25;51.75;;;;;9.96;51.16;102512.19;5071746;27;45291;-74
2022/03/23 02:11:45;;;;;;;;;64.50;52.75;;;;;9.85;51.83;102491.38;5067982;28;46527;-74
2022/03/23 02:14:12;;;;;;;;;68.25;53.00;;;;;9.47;52.84;102433.84;5078531;28;45324;-74
2022/03/23 02:16:45;;;;;;;;;68.50;53.00;;;;;9.69;51.72;102478.19;5078475;27;45379;-74
2022/03/23 02:19:13;;;;;;;;;66.00;52.25;;;;;9.82;53.03;102498.22;5073443;28;45649;-74
2022/03/23 02:21:46;;;;;;;;;69.50;53.75;;;;;9.69;50.27;102485.16;5067880;28;47116;-74
2022/03/23 02:24:13;;;;;;;;;67.25;52.25;;;;;9.42;52.51;102451.16;5077904;28;46280;-74
2022/03/23 02:26:40;;;;;;;;;63.75;51.50;;;;;9.64;52.83;102498.16;5072314;27;45446;-74
2022/03/23 02:29:06;;;;;;;;;71.25;52.00;;;;;9.48;53.09;102480.53;5079658;28;45351;-74
2022/03/23 02:31:32;;;;;;;;;66.25;51.25;;;;;9.66;50.00;102504.38;5075021;27;45387;-74
2022/03/23 02:33:58;;;;;;;;;72.00;54.25;;;;;9.59;52.28;102505.78;5078280;28;45534;-75
2022/03/23 02:36:23;;;;;;;;;67.50;51.75;;;;;9.27;53.65;102452.94;5075924;28;45188;-74
2022/03/23 02:38:49;;;;;;;;;61.00;50.75;;;;;9.51;53.27;102504.47;5075946;28;45214;-74
2022/03/23 02:41:15;;;;;;;;;61.25;50.25;;;;;9.29;51.46;102475.03;5075206;27;45586;-74
2022/03/23 02:43:40;;;;;;;;;67.50;50.00;;;;;9.39;51.57;102494.13;5073837;28;46126;-74
2022/03/23 02:46:14;;;;;;;;;66.75;52.00;;;;;9.13;52.04;102460.06;5073701;28;45382;-74
2022/03/23 02:48:40;;;;;;;;;69.75;52.50;;;;;9.26;52.45;102494.25;5077766;28;45406;-74
2022/03/23 02:51:05;;;;;;;;;62.50;51.50;;;;;9.17;53.49;102480.53;5074127;28;45481;-74
2022/03/23 03:02:15;;;;;;;;;57.25;46.00;;;;;9.07;51.67;102476.44;5077040;28;45285;-74
2022/03/23 03:04:41;;;;;;;;;63.50;43.50;;;;;9.14;52.34;102501.47;5071701;28;46982;-73
2022/03/23 03:07:07;;;;;;;;;63.00;48.75;;;;;8.94;52.47;102472.22;5076300;28;45413;-74
2022/03/23 03:09:32;;;;;;;;;57.75;47.00;;;;;9.20;50.90;102528.19;5073125;28;45492;-74
2022/03/23 03:11:57;;;;;;;;;55.00;41.50;;;;;9.01;50.63;102491.03;5081757;27;46095;-74
2022/03/23 03:14:23;;;;;;;;;46.50;40.75;;;;;9.04;49.84;102493.84;5072798;28;45316;-73
2022/03/23 03:16:48;;;;;;;;;42.25;36.00;;;;;9.24;49.24;102529.28;5077626;28;45411;-73
2022/03/23 03:19:14;;;;;;;;;23.75;21.00;;;;;9.26;48.14;102538.19;5073591;27;44892;-74
2022/03/23 03:21:40;;;;;;;;;32.00;26.00;;;;;9.19;46.42;102519.38;5078294;28;45280;-74
2022/03/23 03:24:06;;;;;;;;;32.25;28.25;;;;;9.30;46.22;102525.28;5078509;28;45237;-75
2022/03/23 03:26:32;;;;;;;;;40.25;34.50;;;;;9.28;47.12;102521.63;5072106;28;45386;-75
2022/03/23 03:28:58;;;;;;;;;40.00;29.75;;;;;9.26;46.89;102518.00;5077423;28;45232;-75
2022/03/23 03:31:23;;;;;;;;;38.25;32.00;;;;;9.20;45.56;102512.38;5076972;27;45381;-75
2022/03/23 03:33:49;;;;;;;;;36.00;31.50;;;;;9.29;46.09;102541.00;5076386;28;47083;-76
2022/03/23 03:36:15;;;;;;;;;31.00;27.25;;;;;9.29;46.15;102535.72;5081774;27;45472;-75
2022/03/23 03:38:42;;;;;;;;;38.75;34.75;;;;;8.94;46.23;102487.13;5082263;28;45162;-75
2022/03/23 03:41:08;;;;;;;;;31.25;28.50;;;;;9.20;46.53;102538.75;5076888;28;46106;-75
2022/03/23 03:43:34;;;;;;;;;31.25;28.00;;;;;9.04;46.63;102513.19;5068820;28;46134;-75
2022/03/23 03:46:01;;;;;;;;;32.00;30.00;;;;;9.19;45.96;102543.13;5078572;28;45355;-74
2022/03/23 03:48:26;;;;;;;;;34.00;27.50;;;;;9.00;46.20;102508.59;5081197;28;45285;-75
2022/03/23 03:50:52;;;;;;;;;32.75;25.00;;;;;9.19;45.71;102545.78;5080641;28;45485;-74
2022/03/23 03:53:17;;;;;;;;;36.25;28.00;;;;;9.20;45.86;102559.88;5104866;27;47655;-74
2022/03/23 03:55:43;;;;;;;;;30.00;23.75;;;;;9.17;46.06;102557.94;5082691;28;45403;-74
2022/03/23 03:58:09;;;;;;;;;38.25;30.25;;;;;9.16;45.58;102556.16;5074052;27;45170;-75
2022/03/23 04:00:36;;;;;;;;;33.50;27.00;;;;;9.17;45.36;102562.31;5079244;28;47022;-74
2022/03/23 04:03:02;;;;;;;;;31.75;26.25;;;;;9.05;45.55;102541.44;5073493;28;46501;-74
2022/03/23 04:05:29;;;;;;;;;26.50;26.50;;;;;8.90;44.43;102525.59;5081690;28;45488;-74
2022/03/23 04:07:55;;;;;;;;;29.25;25.50;;;;;9.13;45.04;102570.88;5073745;28;45421;-74
2022/03/23 04:10:21;;;;;;;;;28.25;22.25;;;;;9.11;44.21;102568.16;5075717;28;46998;-75
2022/03/23 04:12:47;;;;;;;;;30.50;25.75;;;;;9.12;44.22;102572.59;5078840;28;46890;-74
2022/03/23 04:15:14;;;;;;;;;62.50;46.75;;;;;8.91;44.34;102537.06;5081767;27;45220;-74
2022/03/23 04:17:39;;;;;;;;;42.50;37.00;;;;;8.96;45.06;102546.13;5080192;28;45373;-74
2022/03/23 04:20:06;;;;;;;;;43.25;36.50;;;;;9.10;45.03;102571.63;5078524;28;47103;-75
2022/03/23 04:22:31;;;;;;;;;57.50;40.25;;;;;9.08;45.02;102575.88;5072157;27;45427;-75
2022/03/23 04:24:57;;;;;;;;;71.33;56.33;;;;;8.91;45.02;102558.16;5079709;28;45347;-74
2022/03/23 04:27:22;;;;;;;;;64.50;51.00;;;;;8.81;45.04;102540.88;5069224;28;45425;-75
2022/03/23 04:29:48;;;;;;;;;37.25;31.25;;;;;9.01;45.10;102578.97;5081491;27;45256;-74
2022/03/23 04:32:13;;;;;;;;;46.00;40.00;;;;;8.87;44.91;102564.97;5071139;28;46107;-74
2022/03/23 04:34:38;;;;;;;;;37.75;34.50;;;;;8.74;45.15;102541.34;5080932;27;45398;-74
2022/03/23 04:37:04;;;;;;;;;52.75;41.00;;;;;8.95;45.25;102584.78;5071803;27;45297;-74
2022/03/23 04:39:30;;;;;;;;;54.25;44.00;;;;;8.91;45.35;102588.09;5080363;28;45229;-73
2022/03/23 04:41:55;;;;;;;;;48.00;37.25;;;;;8.85;45.85;102581.50;5075656;27;45537;-73
2022/03/23 04:44:21;;;;;;;;;31.75;27.50;;;;;8.87;45.27;102598.34;5069231;28;45289;-75
2022/03/23 04:46:46;;;;;;;;;32.50;28.25;;;;;8.77;45.23;102581.06;5073890;28;45505;-73
2022/03/23 04:49:12;;;;;;;;;34.25;30.25;;;;;8.66;45.28;102576.88;5063084;28;45193;-74
2022/03/23 04:51:38;;;;;;;;;30.50;26.00;;;;;8.67;45.64;102583.97;5070878;28;46971;-75
2022/03/23 04:54:04;;;;;;;;;34.00;29.00;;;;;8.56;45.32;102585.94;5070271;27;45283;-74
2022/03/23 04:56:29;;;;;;;;;28.50;23.75;;;;;8.51;46.12;102588.31;5077355;28;45390;-75
2022/03/23 04:58:56;;;;;;;;;37.00;30.00;;;;;8.56;45.42;102604.38;5076257;28;47349;-74
2022/03/23 05:01:21;;;;;;;;;33.25;29.50;;;;;8.41;45.94;102585.91;5073770;28;45402;-75
2022/03/23 05:03:47;;;;;;;;;26.75;26.75;;;;;8.17;45.77;102548.38;5072609;27;45372;-75
2022/03/23 05:06:12;;;;;;;;;30.50;24.00;;;;;8.45;46.30;102616.91;5080282;28;45213;-75
2022/03/23 05:08:38;;;;;;;;;36.50;28.00;;;;;8.45;46.49;102614.25;5073441;27;45371;-74
2022/03/23 05:11:03;;;;;;;;;28.75;26.75;;;;;8.17;46.69;102564.19;5079661;28;45644;-74
2022/03/23 05:13:29;;;;;;;;;37.00;32.75;;;;;8.40;46.20;102606.88;5075853;27;45289;-74
2022/03/23 05:15:54;;;;;;;;;30.50;23.25;;;;;8.13;46.17;102577.06;5081946;28;45362;-74
2022/03/23 05:18:20;;;;;;;;;35.25;25.25;;;;;8.33;46.98;102615.19;5071915;28;45938;-74
2022/03/23 05:20:46;;;;;;;;;31.75;25.00;;;;;8.16;47.48;102586.06;5081400;27;46200;-74
2022/03/23 05:23:11;;;;;;;;;32.50;28.75;;;;;8.17;46.45;102598.41;5080153;28;45373;-74
2022/03/23 05:25:36;;;;;;;;;28.00;23.00;;;;;8.19;47.33;102615.25;5081665;27;45419;-74
2022/03/23 05:28:06;;;;;;;;;28.25;23.50;;;;;8.17;46.89;102615.94;5071595;27;45494;-74
2022/03/23 05:30:31;;;;;;;;;29.00;24.00;;;;;8.15;47.75;102617.56;5079718;27;46240;-74
2022/03/23 05:32:56;;;;;;;;;33.00;25.25;;;;;7.92;47.44;102585.41;5071727;27;45250;-74
2022/03/23 05:35:22;;;;;;;;;28.25;27.00;;;;;7.99;47.75;102607.81;5077452;28;45553;-73
2022/03/23 05:37:47;;;;;;;;;30.25;28.25;;;;;7.92;48.08;102606.47;5071383;27;45339;-74
2022/03/23 05:40:13;;;;;;;;;27.50;25.25;;;;;7.92;48.18;102614.38;5079920;27;45265;-74
2022/03/23 05:42:39;;;;;;;;;25.75;25.25;;;;;7.42;48.30;102532.16;5070011;27;45272;-74
2022/03/23 05:45:06;;;;;;;;;30.00;27.25;;;;;7.90;47.92;102620.34;5073712;28;45350;-74
2022/03/23 05:47:31;;;;;;;;;30.00;27.50;;;;;7.63;47.74;102587.09;5073503;28;45529;-74
2022/03/23 05:49:56;;;;;;;;;31.75;27.25;;;;;7.80;49.03;102625.03;5061019;28;45338;-73
2022/03/23 05:52:22;;;;;;;;;26.00;21.00;;;;;7.77;48.92;102630.09;5073342;28;45279;-74
2022/03/23 05:54:47;;;;;;;;;35.25;26.75;;;;;7.53;49.30;102586.38;5073392;28;45620;-74
2022/03/23 05:57:13;;;;;;;;;34.25;29.25;;;;;7.74;48.69;102623.75;5076999;28;45501;-74
2022/03/23 05:59:38;;;;;;;;;36.75;26.00;;;;;7.71;47.73;102628.81;5073015;28;46367;-73
2022/03/23 06:02:03;;;;;;;;;43.25;34.00;;;;;7.69;49.31;102627.78;5073348;28;45518;-74
2022/03/23 06:04:29;;;;;;;;;32.75;27.50;;;;;7.65;49.18;102626.69;5073083;28;45217;-74
2022/03/23 06:06:54;;;;;;;;;31.00;30.25;;;;;7.17;50.10;102544.63;5079162;28;45606;-74
2022/03/23 06:09:20;;;;;;;;;29.25;26.25;;;;;7.61;50.07;102628.19;5072529;27;45311;-74
2022/03/23 06:11:45;;;;;;;;;27.00;25.25;;;;;7.55;49.72;102614.63;5079403;28;45320;-74
2022/03/23 06:14:11;;;;;;;;;35.00;29.50;;;;;7.63;50.07;102629.22;5073501;28;45228;-74
2022/03/23 06:16:36;;;;;;;;;39.75;33.50;;;;;7.61;50.70;102633.44;5079083;28;45233;-74
2022/03/23 06:19:02;;;;;;;;;33.00;27.75;;;;;7.50;50.11;102612.50;5074914;27;46237;-73
2022/03/23 06:21:28;;;;;;;;;31.00;26.00;;;;;7.56;50.31;102629.63;5074724;28;45596;-74
2022/03/23 06:23:53;;;;;;;;;37.00;27.50;;;;;7.42;49.93;102603.19;5076711;28;45362;-73
2022/03/23 06:26:19;;;;;;;;;37.25;29.75;;;;;7.51;50.96;102625.78;5073909;28;46142;-74
2022/03/23 06:28:44;;;;;;;;;30.50;29.50;;;;;7.56;50.71;102629.63;5079867;27;46059;-74
2022/03/23 06:31:09;;;;;;;;;26.50;24.00;;;;;7.54;50.36;102628.63;5076775;27;45257;-75
2022/03/23 06:33:35;;;;;;;;;32.25;26.00;;;;;7.51;51.00;102620.53;5071891;28;45359;-76
2022/03/23 06:36:01;;;;;;;;;41.75;36.50;;;;;7.67;50.09;102639.94;5077420;28;45375;-75
2022/03/23 06:38:26;;;;;;;;;38.50;34.25;;;;;7.58;51.09;102616.56;5076085;28;47635;-76
2022/03/23 06:40:52;;;;;;;;;46.75;37.00;;;;;7.42;52.09;102596.22;5077431;27;45284;-76
2022/03/23 06:43:17;;;;;;;;;45.00;38.00;;;;;7.60;51.72;102630.75;5070460;28;45277;-75
2022/03/23 06:45:44;;;;;;;;;58.25;43.75;;;;;7.78;51.98;102671.41;5077582;28;47204;-76
2022/03/23 06:48:10;;;;;;;;;55.00;39.50;;;;;7.77;51.54;102648.53;5072011;27;46971;-77
2022/03/23 06:50:35;;;;;;;;;58.25;44.75;;;;;7.84;50.59;102648.13;5063343;28;45444;-79
2022/03/23 06:53:01;;;;;;;;;48.50;40.25;;;;;8.01;51.65;102665.03;5070672;27;45230;-77
2022/03/23 06:55:27;;;;;;;;;51.00;38.25;;;;;7.88;50.40;102628.19;5075463;28;46151;-78
2022/03/23 06:57:52;;;;;;;;;48.75;40.25;;;;;8.04;50.21;102645.88;5071639;28;45379;-75
2022/03/23 07:00:18;;;;;;;;;51.50;41.00;;;;;8.29;50.33;102666.81;5076797;28;45371;-79
2022/03/23 07:02:46;;;;;;;;;45.00;34.50;;;;;8.48;49.61;102674.16;5072504;28;45692;-77
2022/03/23 07:05:16;;;;;;;;;40.75;35.25;;;;;8.49;49.46;102647.00;5078656;27;45335;-79
2022/03/23 07:10:28;;;;;;;;;51.00;41.50;;;;;9.09;48.31;102674.41;5065284;28;45333;-79
2022/03/23 07:12:54;;;;;;;;;48.50;37.50;;;;;9.35;48.63;102687.44;5069177;28;45272;-76
2022/03/23 07:15:19;;;;;;;;;45.75;39.75;;;;;9.33;47.94;102648.59;5078289;28;45544;-79
2022/03/23 07:17:44;;;;;;;;;51.00;37.50;;;;;9.60;47.50;102660.72;5078826;27;45466;-80
2022/03/23 07:20:10;;;;;;;;;50.25;38.25;;;;;9.70;47.77;102645.44;5072251;27;45372;-78
2022/03/23 07:22:36;;;;;;;;;49.00;38.00;;;;;10.15;47.17;102689.41;5077196;27;45335;-78
2022/03/23 07:25:01;;;;;;;;;51.00;39.75;;;;;10.36;46.62;102686.16;5076753;28;45980;-79
2022/03/23 07:27:27;;;;;;;;;45.00;39.50;;;;;10.36;46.72;102659.72;5070653;28;45430;-78
2022/03/23 07:29:53;;;;;;;;;50.25;38.75;;;;;10.66;45.61;102674.63;5079313;27;45216;-77
2022/03/23 07:32:18;;;;;;;;;50.75;37.00;;;;;10.76;45.27;102665.47;5069333;28;45453;-77
2022/03/23 07:34:44;;;;;;;;;45.00;38.50;;;;;10.81;45.12;102660.41;5079398;27;45226;-77
2022/03/23 07:37:09;;;;;;;;;52.50;40.00;;;;;11.11;45.64;102682.28;5077055;28;45347;-76
2022/03/23 07:39:35;;;;;;;;;49.25;39.75;;;;;11.31;44.55;102693.91;5079314;28;45205;-76
2022/03/23 07:42:02;;;;;;;;;58.50;45.75;;;;;11.38;44.09;102686.38;5073667;28;45161;-78
2022/03/23 07:44:29;;;;;;;;;45.75;38.50;;;;;11.38;44.89;102664.28;5079094;27;45347;-78
2022/03/23 07:46:55;;;;;;;;;52.50;44.00;;;;;11.66;43.44;102677.19;5065454;28;45415;-81
2022/03/23 07:49:21;;;;;;;;;51.75;40.25;;;;;11.62;43.72;102659.28;5088666;27;45412;-77
2022/03/23 07:51:46;;;;;;;;;53.50;43.00;;;;;11.84;44.58;102664.81;5076947;28;45354;-76
2022/03/23 07:54:11;;;;;;;;;56.50;43.50;;;;;11.99;44.23;102658.53;5078660;27;45501;-76
2022/03/23 07:56:37;;;;;;;;;55.00;42.75;;;;;12.38;43.14;102693.03;5077603;27;48173;-76
2022/03/23 07:59:03;;;;;;;;;53.75;43.25;;;;;12.25;43.09;102646.50;5069170;27;45283;-77
2022/03/23 08:01:28;;;;;;;;;50.75;41.00;;;;;12.71;42.66;102699.03;5078104;28;45457;-77
2022/03/23 08:03:54;;;;;;;;;57.00;43.00;;;;;12.64;42.72;102655.38;5071171;27;45321;-76
2022/03/23 08:06:19;;;;;;;;;57.00;43.25;;;;;13.09;42.00;102707.81;5078366;28;46016;-76
2022/03/23 08:08:46;;;;;;;;;52.75;42.25;;;;;13.31;41.94;102700.00;5071919;27;45214;-76
2022/03/23 08:11:11;;;;;;;;;52.50;40.50;;;;;13.23;41.62;102648.25;5071793;28;45419;-77
2022/03/23 08:13:37;;;;;;;;;50.50;42.50;;;;;13.49;40.91;102681.28;5076750;28;46353;-76
2022/03/23 08:16:04;;;;;;;;;46.75;38.50;;;;;13.67;39.48;102678.50;5079835;27;46008;-75
2022/03/23 08:18:29;;;;;;;;;42.00;35.00;;;;;13.93;40.07;102687.56;5073700;28;45319;-75
2022/03/23 08:20:54;;;;;;;;;40.25;33.25;;;;;14.10;38.39;102706.84;5074894;28;45426;-75
2022/03/23 08:23:20;;;;;;;;;43.00;34.75;;;;;14.19;38.46;102683.28;5072393;27;45339;-75
2022/03/23 08:25:46;;;;;;;;;36.75;32.75;;;;;14.43;36.39;102693.09;5080762;27;46921;-76
2022/03/23 08:28:14;;;;;;;;;41.00;32.75;;;;;14.61;37.16;102685.81;5072117;27;45501;-76
2022/03/23 08:30:40;;;;;;;;;40.00;32.75;;;;;14.90;34.63;102713.56;5074819;27;45519;-77
2022/03/23 08:33:06;;;;;;;;;37.25;33.25;;;;;15.07;35.30;102706.19;5070241;28;45354;-78
2022/03/23 08:35:32;;;;;;;;;31.75;30.75;;;;;15.30;32.60;102716.75;5073019;28;47370;-78
2022/03/23 08:37:58;;;;;;;;;36.25;32.50;;;;;15.45;35.64;102712.84;5069500;28;45301;-77
2022/03/23 08:40:23;;;;;;;;;35.50;29.50;;;;;15.54;33.74;102700.69;5080747;28;45604;-75
2022/03/23 08:42:49;;;;;;;;;23.25;22.75;;;;;15.42;35.68;102646.13;5070005;27;46490;-76
2022/03/23 08:45:16;;;;;;;;;33.50;28.25;;;;;16.00;32.26;102719.19;5075762;28;46564;-76
2022/03/23 08:47:43;;;;;;;;;34.00;31.25;;;;;16.06;31.53;102700.72;5074638;28;45301;-76
2022/03/23 08:50:11;;;;;;;;;29.75;29.50;;;;;16.05;32.39;102672.25;5062383;28;45637;-77
2022/03/23 08:52:38;;;;;;;;;32.75;30.75;;;;;16.07;35.27;102674.94;5075012;28;46636;-77
2022/03/23 08:55:07;;;;;;;;;33.50;29.75;;;;;16.30;32.19;102705.03;5079924;27;45306;-77
2022/03/23 08:57:32;;;;;;;;;29.00;28.50;;;;;16.27;33.84;102699.56;5079056;28;45597;-76
2022/03/23 08:59:58;;;;;;;;;30.00;27.50;;;;;16.19;32.21;102694.03;5067088;28;45252;-76
2022/03/23 09:02:23;;;;;;;;;28.25;28.25;;;;;16.42;30.86;102717.84;5077723;28;45418;-76
2022/03/23 09:04:49;;;;;;;;;34.50;30.00;;;;;16.35;32.26;102698.06;5074939;28;48335;-77
2022/03/23 09:07:14;;;;;;;;;31.75;30.75;;;;;16.40;32.44;102691.09;5090633;27;45341;-76
2022/03/23 09:09:40;;;;;;;;;30.75;30.00;;;;;16.63;29.58;102721.16;5081134;27;45239;-76
2022/03/23 09:12:05;;;;;;;;;32.50;29.75;;;;;16.71;31.94;102711.63;5079663;27;45458;-75
2022/03/23 09:14:31;;;;;;;;;25.50;23.50;;;;;16.93;29.61;102717.63;5076493;28;45873;-77
2022/03/23 09:16:56;;;;;;;;;32.00;27.75;;;;;17.20;29.05;102704.16;5072274;28;45260;-75
2022/03/23 09:19:22;;;;;;;;;26.75;26.50;;;;;17.44;31.74;102720.84;5080419;28;45578;-75
2022/03/23 09:21:48;;;;;;;;;24.00;22.00;;;;;17.35;28.17;102688.53;5073270;27;45405;-74
2022/03/23 09:24:13;;;;;;;;;30.25;27.25;;;;;17.52;30.08;102685.38;5077568;28;47419;-76
2022/03/23 09:26:39;;;;;;;;;31.50;26.25;;;;;17.75;27.20;102708.25;5073787;27;45332;-76
2022/03/23 09:29:05;;;;;;;;;23.33;21.33;;;;;17.96;29.53;102712.41;5077980;28;45307;-76
2022/03/23 09:31:30;;;;;;;;;28.00;23.67;;;;;18.07;26.31;102682.34;5074980;27;45437;-80
2022/03/23 09:33:56;;;;;;;;;24.33;21.00;;;;;18.30;25.90;102674.84;5075978;28;45663;-79
2022/03/23 09:39:05;;;;;;;;;19.67;19.67;;;;;19.04;26.49;102713.94;5067641;28;45292;-78
2022/03/23 09:41:32;;;;;;;;;24.33;20.00;;;;;19.26;27.66;102711.69;5075896;28;45379;-78
2022/03/23 09:43:58;;;;;;;;;24.67;23.00;;;;;19.41;25.33;102709.31;5069471;27;46087;-78
2022/03/23 09:46:24;;;;;;;;;29.67;22.67;;;;;19.55;25.41;102704.16;5078022;28;45288;-76
2022/03/23 09:48:49;;;;;;;;;21.67;19.00;;;;;19.63;27.70;102687.34;5066374;28;45312;-77
2022/03/23 09:51:16;;;;;;;;;25.00;24.33;;;;;19.88;25.62;102695.81;5070131;28;45299;-77
2022/03/23 09:53:42;;;;;;;;;23.00;20.67;;;;;20.00;25.77;102703.19;5070927;27;45565;-77
2022/03/23 09:56:08;;;;;;;;;25.00;21.33;;;;;20.00;25.30;102714.81;5079775;28;45340;-76
2022/03/23 09:58:33;;;;;;;;;27.33;24.00;;;;;20.16;25.14;102715.94;5069358;27;45452;-76
2022/03/23 10:00:59;;;;;;;;;24.00;22.00;;;;;20.15;26.52;102681.03;5078003;27;45760;-77
2022/03/23 10:04:05;;;;;;;;;28.67;26.00;;;;;20.61;25.54;102709.44;5079477;27;45803;-76
2022/03/23 10:07:12;;;;;;;;;31.33;23.67;;;;;20.87;26.74;102715.19;5078673;27;45473;-74
2022/03/23 10:10:02;;;;;;;;;26.33;26.33;;;;;20.84;26.12;102717.84;5074772;28;45324;-76
2022/03/23 10:13:05;;;;;;;;;24.67;21.33;;;;;20.95;26.36;102700.06;5073563;28;45516;-76
2022/03/23 10:16:16;;;;;;;;;24.00;23.33;;;;;21.06;27.01;102702.88;5068878;28;45376;-77
2022/03/23 10:18:56;;;;;;;;;25.00;21.33;;;;;20.65;25.66;102689.81;5087521;27;45474;-76
2022/03/23 10:21:26;;;;;;;;;26.67;24.00;;;;;20.55;25.04;102687.88;5074864;28;45478;-76
2022/03/23 10:24:11;;;;;;;;;20.00;18.00;;;;;20.88;25.01;102705.34;5074706;28;45365;-76
2022/03/23 10:26:40;;;;;;;;;18.67;17.33;;;;;20.78;22.57;102707.91;5073947;28;47466;-76
2022/03/23 10:29:19;;;;;;;;;20.67;19.33;;;;;21.04;25.55;102684.91;5077811;27;45339;-78
2022/03/23 10:31:45;;;;;;;;;24.00;21.33;;;;;21.24;22.96;102697.66;5073496;28;45515;-78
2022/03/23 10:34:10;;;;;;;;;25.67;23.33;;;;;21.40;24.41;102685.31;5078340;28;45385;-78
2022/03/23 10:36:38;;;;;;;;;22.67;19.33;;;;;21.53;24.11;102699.78;5074155;28;45683;-79
2022/03/23 10:39:07;;;;;;;;;20.00;19.00;;;;;21.45;24.17;102680.91;5061709;28;45692;-76
2022/03/23 10:41:32;;;;;;;;;20.33;18.33;;;;;21.71;22.00;102693.69;5072124;28;45343;-76
2022/03/23 10:43:59;;;;;;;;;25.00;21.00;;;;;21.45;21.99;102691.66;5067807;27;45395;-77
2022/03/23 10:46:25;;;;;;;;;23.00;21.67;;;;;21.55;23.87;102686.34;5076096;28;46107;-76
2022/03/23 10:48:59;;;;;;;;;22.33;21.33;;;;;21.78;23.48;102687.44;5067794;28;45435;-76
2022/03/23 10:51:30;;;;;;;;;20.33;19.00;;;;;21.81;21.55;102676.69;5078257;28;45366;-75
2022/03/23 10:53:56;;;;;;;;;22.00;19.33;;;;;21.87;22.74;102641.75;5069017;27;45346;-77
2022/03/23 10:56:37;;;;;;;;;22.00;21.00;;;;;22.22;23.76;102667.13;5078085;28;46946;-78
2022/03/23 10:59:23;;;;;;;;;25.00;23.00;;;;;22.47;23.97;102665.47;5079216;28;45506;-79
2022/03/23 11:02:04;;;;;;;;;24.00;22.67;;;;;22.52;22.50;102677.19;5076490;28;45295;-79
2022/03/23 11:04:56;;;;;;;;;28.00;22.33;;;;;22.42;22.65;102660.06;5071935;28;45253;-77
2022/03/23 11:07:35;;;;;;;;;22.67;21.33;;;;;22.59;22.90;102664.63;5075727;28;45562;-79
2022/03/23 11:15:47;;;;;;;;;22.67;21.00;;;;;22.67;21.76;102626.00;5078119;28;45350;-77
2022/03/23 11:18:17;;;;;;;;;26.33;24.33;;;;;23.16;21.47;102663.94;5069264;28;45215;-76
2022/03/23 11:20:46;;;;;;;;;25.33;21.67;;;;;23.27;20.24;102663.03;5078031;27;45351;-76
2022/03/23 11:23:17;;;;;;;;;23.00;23.00;;;;;23.26;22.35;102650.47;5074533;28;45338;-76
2022/03/23 11:25:43;;;;;;;;;27.33;21.00;;;;;23.39;21.16;102646.88;5076704;27;45531;-76
2022/03/23 11:28:10;;;;;;;;;27.00;23.67;;;;;23.54;20.80;102654.97;5076883;28;47578;-76
2022/03/23 11:30:37;;;;;;;;;29.67;25.00;;;;;23.61;19.78;102651.38;5077933;27;45438;-77
2022/03/23 11:33:05;;;;;;;;;23.67;23.33;;;;;23.74;19.60;102641.50;5069727;27;45212;-76